createdAt,value
2022-10-15T00:00:49.867Z,13.78
2022-10-15T00:01:52.034Z,17.40
2022-10-15T00:02:54.271Z,15.00
2022-10-15T00:03:56.182Z,18.00
2022-10-15T00:04:58.132Z,17.80
2022-10-15T00:06:06.539Z,16.70
2022-10-15T00:07:08.477Z,17.50
2022-10-15T00:08:11.427Z,14.78
2022-10-15T00:09:13.375Z,19.00
2022-10-15T00:10:16.155Z,15.89
2022-10-15T00:11:21.605Z,15.80
2022-10-15T00:12:24.613Z,18.80
2022-10-15T00:13:26.348Z,14.27
2022-10-15T00:14:28.704Z,15.33
2022-10-15T00:15:30.912Z,15.50
2022-10-15T00:16:33.242Z,11.40
2022-10-15T00:17:36.015Z,15.50
2022-10-15T00:18:38.235Z,16.40
2022-10-15T00:19:40.025Z,15.50
2022-10-15T00:20:42.013Z,15.56
2022-10-15T00:21:43.770Z,15.56
2022-10-15T00:22:45.480Z,14.33
2022-10-15T00:23:48.016Z,15.89
2022-10-15T00:24:49.714Z,12.00
2022-10-15T00:27:13.642Z,13.10
2022-10-15T00:28:17.069Z,14.80
2022-10-15T00:29:19.222Z,15.00
2022-10-15T00:30:21.154Z,16.90
2022-10-15T00:31:25.206Z,12.78
2022-10-15T00:32:27.098Z,17.10
2022-10-15T00:33:28.994Z,15.22
2022-10-15T00:34:30.869Z,18.89
2022-10-15T00:35:33.938Z,17.00
2022-10-15T00:36:37.090Z,17.60
2022-10-15T00:37:38.946Z,17.70
2022-10-15T00:38:40.841Z,19.89
2022-10-15T00:39:42.973Z,17.44
2022-10-15T00:40:45.288Z,16.70
2022-10-15T00:41:48.349Z,16.44
2022-10-15T00:42:50.682Z,15.60
2022-10-15T00:43:58.155Z,17.11
2022-10-15T00:45:00.738Z,14.00
2022-10-15T00:46:03.824Z,16.50
2022-10-15T00:47:27.522Z,15.20
2022-10-15T00:48:32.121Z,14.30
2022-10-15T00:49:42.733Z,14.70
2022-10-15T00:50:46.127Z,17.70
2022-10-15T00:53:08.169Z,13.30
2022-10-15T00:54:12.127Z,16.30
2022-10-15T00:55:24.682Z,21.00
2022-10-15T00:56:29.168Z,18.50
2022-10-15T00:57:32.989Z,14.90
2022-10-15T00:58:36.179Z,19.80
2022-10-15T00:59:43.896Z,18.50
2022-10-15T01:00:45.991Z,19.10
2022-10-15T01:01:48.475Z,21.80
2022-10-15T01:02:50.179Z,18.60
2022-10-15T01:03:54.747Z,15.44
2022-10-15T01:04:56.788Z,13.90
2022-10-15T01:05:58.958Z,17.00
2022-10-15T01:07:00.999Z,15.20
2022-10-15T01:08:02.877Z,22.90
2022-10-15T01:09:06.151Z,23.56
2022-10-15T01:10:10.843Z,23.50
2022-10-15T01:11:26.381Z,20.40
2022-10-15T01:12:54.418Z,24.20
2022-10-15T01:14:21.284Z,23.80
2022-10-15T01:15:44.898Z,18.50
2022-10-15T01:17:03.088Z,24.70
2022-10-15T01:18:11.941Z,14.00
2022-10-15T01:19:33.970Z,22.30
2022-10-15T01:21:04.264Z,23.50
2022-10-15T01:22:10.939Z,23.30
2022-10-15T01:23:32.957Z,23.40
2022-10-15T01:24:42.490Z,22.80
2022-10-15T01:26:17.160Z,23.00
2022-10-15T01:27:34.188Z,20.90
2022-10-15T01:29:04.808Z,22.40
2022-10-15T01:30:20.613Z,23.20
2022-10-15T01:31:30.780Z,23.20
2022-10-15T01:32:36.288Z,23.90
2022-10-15T01:33:45.233Z,18.50
2022-10-15T01:34:51.559Z,22.80
2022-10-15T01:36:14.254Z,22.10
2022-10-15T01:37:23.245Z,21.60
2022-10-15T01:38:51.394Z,21.40
2022-10-15T01:40:09.044Z,22.40
2022-10-15T01:41:27.933Z,24.20
2022-10-15T01:42:36.492Z,22.50
2022-10-15T01:43:57.134Z,23.00
2022-10-15T01:45:10.719Z,19.80
2022-10-15T01:46:30.008Z,23.20
2022-10-15T01:47:51.792Z,24.70
2022-10-15T01:48:56.896Z,26.70
2022-10-15T01:50:01.971Z,25.10
2022-10-15T01:51:07.085Z,24.40
2022-10-15T01:53:34.916Z,9.30
2022-10-15T01:54:39.088Z,28.20
2022-10-15T01:55:44.506Z,24.90
2022-10-15T01:56:49.377Z,17.40
2022-10-15T01:57:56.605Z,19.40
2022-10-15T01:59:02.258Z,19.00
2022-10-15T02:00:05.875Z,17.20
2022-10-15T02:01:10.099Z,14.10
2022-10-15T02:02:13.433Z,17.50
2022-10-15T02:03:15.632Z,17.50
2022-10-15T02:04:25.959Z,16.00
2022-10-15T02:05:31.691Z,16.00
2022-10-15T02:06:37.528Z,16.50
2022-10-15T02:07:49.187Z,15.10
2022-10-15T02:08:57.436Z,14.20
2022-10-15T02:10:05.672Z,15.80
2022-10-15T02:11:14.086Z,18.70
2022-10-15T02:12:32.160Z,14.90
2022-10-15T02:13:51.308Z,16.70
2022-10-15T02:14:59.826Z,15.30
2022-10-15T02:16:23.102Z,14.90
2022-10-15T02:17:42.147Z,17.10
2022-10-15T02:20:21.893Z,16.20
2022-10-15T02:21:30.666Z,14.70
2022-10-15T02:22:37.259Z,16.60
2022-10-15T02:23:49.221Z,15.80
2022-10-15T02:25:03.774Z,15.30
2022-10-15T02:26:08.896Z,14.10
2022-10-15T02:27:14.375Z,17.10
2022-10-15T02:28:18.372Z,15.40
2022-10-15T02:29:23.455Z,12.40
2022-10-15T02:30:28.365Z,13.40
2022-10-15T02:31:33.077Z,15.80
2022-10-15T02:32:38.120Z,13.20
2022-10-15T02:33:41.258Z,13.90
2022-10-15T02:34:45.536Z,14.40
2022-10-15T02:35:50.646Z,3.40
2022-10-15T02:36:54.037Z,16.70
2022-10-15T02:37:59.584Z,15.73
2022-10-15T02:39:04.484Z,14.60
2022-10-15T02:40:08.615Z,12.70
2022-10-15T02:41:13.325Z,13.70
2022-10-15T02:42:18.062Z,6.30
2022-10-15T02:43:21.512Z,13.20
2022-10-15T02:44:25.386Z,13.20
2022-10-15T02:45:27.346Z,15.30
2022-10-15T02:46:31.062Z,15.40
2022-10-15T02:47:33.519Z,16.70
2022-10-15T02:48:37.049Z,16.00
2022-10-15T02:49:38.820Z,12.89
2022-10-15T02:50:40.976Z,17.89
2022-10-15T02:51:42.754Z,16.89
2022-10-15T02:52:44.480Z,15.33
2022-10-15T02:53:47.299Z,9.20
2022-10-15T02:54:48.976Z,17.10
2022-10-15T02:55:52.057Z,14.18
2022-10-15T02:56:54.133Z,15.00
2022-10-15T02:57:56.820Z,15.40
2022-10-15T02:58:58.542Z,17.00
2022-10-15T03:00:00.299Z,14.56
2022-10-15T03:01:03.887Z,14.50
2022-10-15T03:02:05.894Z,17.70
2022-10-15T03:03:08.296Z,16.50
2022-10-15T03:04:10.418Z,18.20
2022-10-15T03:05:13.369Z,20.00
2022-10-15T03:06:15.531Z,18.90
2022-10-15T03:07:17.529Z,16.30
2022-10-15T03:08:19.623Z,18.78
2022-10-15T03:09:21.687Z,0.56
2022-10-15T03:10:25.005Z,20.60
2022-10-15T03:11:27.111Z,20.70
2022-10-15T03:12:28.848Z,21.33
2022-10-15T03:13:32.657Z,19.11
2022-10-15T03:14:34.729Z,19.10
2022-10-15T03:15:38.036Z,20.33
2022-10-15T03:16:41.174Z,21.00
2022-10-15T03:17:45.378Z,20.50
2022-10-15T03:18:49.493Z,23.40
2022-10-15T03:19:52.784Z,20.70
2022-10-15T03:20:55.984Z,14.70
2022-10-15T03:21:58.970Z,17.80
2022-10-15T03:23:02.842Z,19.40
2022-10-15T03:24:06.363Z,17.27
2022-10-15T03:25:08.529Z,18.90
2022-10-15T03:26:13.098Z,17.18
2022-10-15T03:27:15.201Z,18.60
2022-10-15T03:28:17.789Z,17.30
2022-10-15T03:29:19.678Z,18.20
2022-10-15T03:30:23.442Z,19.20
2022-10-15T03:31:25.274Z,13.00
2022-10-15T03:32:32.009Z,14.60
2022-10-15T03:33:33.613Z,19.90
2022-10-15T03:34:36.460Z,16.80
2022-10-15T03:35:39.645Z,19.45
2022-10-15T03:36:41.990Z,13.30
2022-10-15T03:37:44.997Z,17.55
2022-10-15T03:38:46.748Z,18.22
2022-10-15T03:39:48.952Z,12.10
2022-10-15T03:40:52.097Z,18.60
2022-10-15T03:42:01.639Z,16.60
2022-10-15T03:43:05.529Z,15.90
2022-10-15T03:44:10.535Z,19.40
2022-10-15T03:45:14.411Z,15.90
2022-10-15T03:46:16.901Z,11.70
2022-10-15T03:47:20.684Z,14.30
2022-10-15T03:48:23.929Z,12.20
2022-10-15T03:49:26.788Z,14.44
2022-10-15T03:50:29.222Z,16.20
2022-10-15T03:51:32.309Z,16.20
2022-10-15T03:52:37.105Z,17.40
2022-10-15T03:53:39.071Z,14.27
2022-10-15T03:54:41.580Z,15.70
2022-10-15T03:55:44.299Z,15.50
2022-10-15T03:56:46.312Z,15.10
2022-10-15T03:57:59.162Z,15.50
2022-10-15T03:59:01.373Z,16.40
2022-10-15T04:00:05.599Z,15.67
2022-10-15T04:01:15.502Z,17.60
2022-10-15T04:02:17.808Z,19.40
2022-10-15T04:03:20.638Z,19.44
2022-10-15T04:04:23.268Z,18.20
2022-10-15T04:05:25.098Z,23.33
2022-10-15T04:06:29.975Z,19.50
2022-10-15T04:07:33.826Z,20.70
2022-10-15T04:08:36.330Z,15.90
2022-10-15T04:09:40.035Z,17.00
2022-10-15T04:10:59.554Z,18.40
2022-10-15T04:12:01.575Z,17.80
2022-10-15T04:13:03.307Z,14.89
2022-10-15T04:14:07.259Z,18.20
2022-10-15T04:15:11.246Z,17.00
2022-10-15T04:16:15.635Z,9.30
2022-10-15T04:17:17.995Z,15.20
2022-10-15T04:18:20.824Z,16.90
2022-10-15T04:19:24.775Z,17.50
2022-10-15T04:20:28.596Z,17.80
2022-10-15T04:21:32.239Z,19.70
2022-10-15T04:22:37.316Z,16.60
2022-10-15T04:23:41.154Z,19.50
2022-10-15T04:24:53.638Z,19.10
2022-10-15T04:26:03.279Z,18.70
2022-10-15T04:27:05.390Z,19.70
2022-10-15T04:28:07.575Z,20.10
2022-10-15T04:29:10.646Z,9.40
2022-10-15T04:30:13.580Z,19.00
2022-10-15T04:31:20.424Z,17.90
2022-10-15T04:32:23.734Z,23.60
2022-10-15T04:33:26.535Z,21.10
2022-10-15T04:34:30.179Z,25.10
2022-10-15T04:35:31.968Z,24.78
2022-10-15T04:36:44.724Z,26.60
2022-10-15T04:37:48.622Z,27.30
2022-10-15T04:38:52.342Z,26.50
2022-10-15T04:39:57.246Z,28.40
2022-10-15T04:41:08.458Z,29.10
2022-10-15T04:42:15.022Z,25.50
2022-10-15T04:43:17.819Z,27.50
2022-10-15T04:44:19.686Z,27.50
2022-10-15T04:46:26.415Z,16.36
2022-10-15T04:47:30.221Z,21.30
2022-10-15T04:48:43.452Z,18.90
2022-10-15T04:49:47.621Z,21.70
2022-10-15T04:52:14.012Z,26.00
2022-10-15T04:53:18.861Z,29.80
2022-10-15T04:54:22.722Z,33.00
2022-10-15T04:55:33.134Z,33.30
2022-10-15T04:56:35.667Z,32.18
2022-10-15T04:57:37.528Z,33.33
2022-10-15T04:58:39.740Z,35.89
2022-10-15T04:59:43.041Z,35.00
2022-10-15T05:01:07.188Z,33.70
2022-10-15T05:02:11.025Z,35.30
2022-10-15T05:03:13.191Z,34.50
2022-10-15T05:04:19.945Z,31.70
2022-10-15T05:05:21.795Z,33.11
2022-10-15T05:06:35.803Z,29.90
2022-10-15T05:07:39.598Z,29.70
2022-10-15T05:08:42.392Z,29.33
2022-10-15T05:09:46.598Z,30.00
2022-10-15T05:10:49.174Z,33.20
2022-10-15T05:11:51.770Z,30.70
2022-10-15T05:12:56.809Z,28.90
2022-10-15T05:14:01.959Z,28.40
2022-10-15T05:15:04.853Z,29.80
2022-10-15T05:16:19.893Z,26.90
2022-10-15T05:17:22.437Z,30.20
2022-10-15T05:18:25.392Z,31.60
2022-10-15T05:19:27.331Z,28.30
2022-10-15T05:20:29.133Z,29.56
2022-10-15T05:21:31.909Z,27.22
2022-10-15T05:22:35.811Z,30.80
2022-10-15T05:23:38.786Z,34.90
2022-10-15T05:24:51.693Z,29.20
2022-10-15T05:26:04.374Z,31.10
2022-10-15T05:27:06.226Z,27.80
2022-10-15T05:28:08.165Z,28.33
2022-10-15T05:29:09.942Z,28.78
2022-10-15T05:30:12.053Z,27.00
2022-10-15T05:31:19.994Z,2.10
2022-10-15T05:33:27.186Z,26.60
2022-10-15T05:34:29.180Z,20.91
2022-10-15T05:35:33.079Z,23.80
2022-10-15T05:36:36.138Z,24.10
2022-10-15T05:37:38.419Z,21.67
2022-10-15T05:38:41.669Z,23.80
2022-10-15T05:39:43.836Z,24.50
2022-10-15T05:40:49.497Z,22.40
2022-10-15T05:41:53.927Z,23.50
2022-10-15T05:42:57.692Z,22.90
2022-10-15T05:44:00.378Z,12.10
2022-10-15T05:45:05.074Z,22.40
2022-10-15T05:46:08.027Z,22.36
2022-10-15T05:47:10.339Z,19.36
2022-10-15T05:48:12.088Z,21.00
2022-10-15T05:49:14.139Z,24.00
2022-10-15T05:50:18.113Z,20.80
2022-10-15T05:51:23.548Z,24.50
2022-10-15T05:52:27.517Z,19.70
2022-10-15T05:53:36.730Z,21.40
2022-10-15T05:54:40.518Z,23.90
2022-10-15T05:55:42.751Z,24.90
2022-10-15T05:56:44.653Z,24.70
2022-10-15T05:57:46.854Z,23.89
2022-10-15T05:58:49.856Z,23.70
2022-10-15T05:59:52.433Z,23.90
2022-10-15T06:00:59.359Z,20.56
2022-10-15T06:02:01.316Z,18.90
2022-10-15T06:03:03.909Z,19.40
2022-10-15T06:04:06.130Z,17.10
2022-10-15T06:05:09.870Z,16.50
2022-10-15T06:06:15.335Z,13.80
2022-10-15T06:07:18.567Z,17.30
2022-10-15T06:08:21.309Z,16.10
2022-10-15T06:09:23.376Z,15.00
2022-10-15T06:10:25.311Z,14.40
2022-10-15T06:11:27.583Z,15.44
2022-10-15T06:12:29.571Z,10.20
2022-10-15T06:13:31.324Z,13.44
2022-10-15T06:14:35.596Z,15.89
2022-10-15T06:15:42.090Z,14.50
2022-10-15T06:16:45.513Z,15.55
2022-10-15T06:17:47.449Z,14.20
2022-10-15T06:18:50.375Z,13.33
2022-10-15T06:19:52.250Z,14.73
2022-10-15T06:20:54.251Z,16.10
2022-10-15T06:21:57.501Z,16.44
2022-10-15T06:22:59.928Z,11.10
2022-10-15T06:24:05.144Z,14.30
2022-10-15T06:25:07.870Z,14.30
2022-10-15T06:26:10.920Z,16.30
2022-10-15T06:27:13.218Z,11.80
2022-10-15T06:28:15.324Z,16.20
2022-10-15T06:29:17.322Z,16.80
2022-10-15T06:30:20.179Z,15.40
2022-10-15T06:31:21.993Z,8.60
2022-10-15T06:32:23.855Z,14.22
2022-10-15T06:33:26.330Z,16.33
2022-10-15T06:34:28.229Z,15.30
2022-10-15T06:35:29.957Z,15.22
2022-10-15T06:36:31.817Z,15.00
2022-10-15T06:37:33.983Z,10.00
2022-10-15T06:38:36.607Z,13.30
2022-10-15T06:39:39.385Z,13.20
2022-10-15T06:40:41.225Z,13.91
2022-10-15T06:41:43.060Z,16.00
2022-10-15T06:42:45.855Z,14.33
2022-10-15T06:43:50.543Z,15.00
2022-10-15T06:44:52.380Z,14.40
2022-10-15T06:45:54.682Z,15.22
2022-10-15T06:46:56.596Z,14.10
2022-10-15T06:47:58.892Z,15.22
2022-10-15T06:49:00.730Z,13.80
2022-10-15T06:50:04.025Z,12.33
2022-10-15T06:51:05.942Z,10.30
2022-10-15T06:52:07.605Z,12.78
2022-10-15T06:53:09.430Z,11.44
2022-10-15T06:54:11.330Z,12.44
2022-10-15T06:55:13.336Z,12.44
2022-10-15T06:56:16.370Z,11.20
2022-10-15T06:57:20.330Z,12.20
2022-10-15T06:58:22.049Z,12.50
2022-10-15T06:59:24.240Z,12.56
2022-10-15T07:00:27.504Z,11.60
2022-10-15T07:01:30.117Z,11.30
2022-10-15T07:02:33.716Z,12.60
2022-10-15T07:03:36.213Z,10.30
2022-10-15T07:04:38.652Z,12.50
2022-10-15T07:05:40.350Z,9.00
2022-10-15T07:06:42.106Z,12.56
2022-10-15T07:07:53.459Z,9.44
2022-10-15T07:08:55.768Z,11.40
2022-10-15T07:09:58.637Z,12.20
2022-10-15T07:11:03.669Z,11.83
2022-10-15T07:12:06.598Z,13.20
2022-10-15T07:13:08.488Z,11.80
2022-10-15T07:14:10.420Z,10.44
2022-10-15T07:15:12.199Z,12.00
2022-10-15T07:16:14.376Z,12.90
2022-10-15T07:17:16.816Z,12.56
2022-10-15T07:18:19.300Z,12.60
2022-10-15T07:19:22.261Z,8.90
2022-10-15T07:20:24.562Z,12.55
2022-10-15T07:21:26.580Z,12.70
2022-10-15T07:22:29.339Z,12.11
2022-10-15T07:23:31.814Z,12.20
2022-10-15T07:24:33.712Z,10.80
2022-10-15T07:25:35.464Z,5.44
2022-10-15T07:26:37.406Z,12.11
2022-10-15T07:27:40.454Z,12.11
2022-10-15T07:28:43.266Z,10.50
2022-10-15T07:29:45.311Z,11.73
2022-10-15T07:30:47.206Z,12.10
2022-10-15T07:31:48.968Z,11.89
2022-10-15T07:32:51.237Z,13.10
2022-10-15T07:33:53.987Z,13.22
2022-10-15T07:34:55.812Z,13.40
2022-10-15T07:35:58.286Z,14.89
2022-10-15T07:37:00.276Z,8.20
2022-10-15T07:38:02.693Z,12.89
2022-10-15T07:39:04.756Z,14.10
2022-10-15T07:40:08.720Z,12.30
2022-10-15T07:41:13.235Z,11.00
2022-10-15T07:42:19.092Z,11.70
2022-10-15T07:43:20.975Z,9.40
2022-10-15T07:44:22.698Z,11.56
2022-10-15T07:45:26.109Z,9.89
2022-10-15T07:46:28.025Z,13.10
2022-10-15T07:47:30.043Z,12.00
2022-10-15T07:48:33.191Z,9.22
2022-10-15T07:49:35.062Z,10.00
2022-10-15T07:50:38.162Z,11.22
2022-10-15T07:51:40.880Z,5.60
2022-10-15T07:52:42.967Z,8.67
2022-10-15T07:53:45.472Z,8.50
2022-10-15T07:54:47.367Z,11.10
2022-10-15T07:55:51.404Z,9.60
2022-10-15T07:56:53.187Z,6.40
2022-10-15T07:57:58.631Z,9.56
2022-10-15T07:59:00.448Z,8.50
2022-10-15T08:00:03.243Z,8.56
2022-10-15T08:01:09.408Z,8.70
2022-10-15T08:03:28.991Z,8.00
2022-10-15T08:04:32.211Z,7.30
2022-10-15T08:05:34.442Z,6.90
2022-10-15T08:06:36.390Z,7.50
2022-10-15T08:07:38.369Z,8.10
2022-10-15T08:08:42.258Z,7.30
2022-10-15T08:09:44.120Z,7.50
2022-10-15T08:10:46.704Z,7.33
2022-10-15T08:11:49.215Z,7.90
2022-10-15T08:12:52.686Z,7.40
2022-10-15T08:13:54.772Z,7.11
2022-10-15T08:14:56.499Z,3.00
2022-10-15T08:16:00.227Z,4.33
2022-10-15T08:17:03.875Z,5.20
2022-10-15T08:18:07.385Z,5.30
2022-10-15T08:19:10.173Z,3.50
2022-10-15T08:20:12.734Z,3.50
2022-10-15T08:21:14.864Z,3.10
2022-10-15T08:22:17.083Z,4.00
2022-10-15T08:23:18.885Z,4.60
2022-10-15T08:24:20.705Z,3.67
2022-10-15T08:25:22.588Z,2.67
2022-10-15T08:26:24.447Z,2.60
2022-10-15T08:27:26.942Z,3.44
2022-10-15T08:28:32.119Z,3.00
2022-10-15T08:29:34.345Z,5.20
2022-10-15T08:30:37.639Z,4.40
2022-10-15T08:31:41.923Z,3.60
2022-10-15T08:32:44.210Z,4.20
2022-10-15T08:33:46.386Z,4.50
2022-10-15T08:34:49.202Z,4.00
2022-10-15T08:35:52.192Z,3.82
2022-10-15T08:36:54.197Z,2.00
2022-10-15T08:37:56.882Z,4.50
2022-10-15T08:38:59.066Z,2.10
2022-10-15T08:40:02.276Z,3.20
2022-10-15T08:41:07.771Z,3.50
2022-10-15T08:42:34.549Z,3.00
2022-10-15T08:43:39.953Z,4.30
2022-10-15T08:44:53.024Z,4.20
2022-10-15T08:45:58.756Z,4.50
2022-10-15T08:47:23.813Z,1.80
2022-10-15T08:48:50.732Z,4.60
2022-10-15T08:49:56.321Z,3.30
2022-10-15T08:51:16.930Z,3.60
2022-10-15T08:52:31.650Z,2.50
2022-10-15T08:53:39.860Z,3.80
2022-10-15T08:54:42.560Z,2.20
2022-10-15T08:55:48.150Z,3.00
2022-10-15T08:56:56.540Z,3.30
2022-10-15T08:58:02.199Z,3.00
2022-10-15T08:59:19.156Z,4.60
2022-10-15T09:00:31.406Z,4.00
2022-10-15T09:01:46.099Z,4.40
2022-10-15T09:03:06.794Z,2.50
2022-10-15T09:04:41.805Z,3.00
2022-10-15T09:06:06.247Z,5.00
2022-10-15T09:07:14.449Z,4.20
2022-10-15T09:08:38.024Z,2.60
2022-10-15T09:09:43.520Z,2.00
2022-10-15T09:10:49.121Z,3.80
2022-10-15T09:12:04.055Z,0.50
2022-10-15T09:13:16.663Z,3.10
2022-10-15T09:14:22.415Z,2.90
2022-10-15T09:15:27.861Z,3.40
2022-10-15T09:16:36.890Z,0.00
2022-10-15T09:17:41.481Z,3.10
2022-10-15T09:18:49.292Z,2.40
2022-10-15T09:19:56.016Z,2.40
2022-10-15T09:20:59.768Z,2.60
2022-10-15T09:22:01.724Z,1.90
2022-10-15T09:23:05.396Z,2.00
2022-10-15T09:24:11.981Z,2.80
2022-10-15T09:26:41.034Z,2.10
2022-10-15T09:27:45.761Z,1.90
2022-10-15T09:28:56.908Z,0.20
2022-10-15T09:30:29.186Z,2.60
2022-10-15T09:31:35.743Z,2.80
2022-10-15T09:32:50.626Z,2.70
2022-10-15T09:33:55.791Z,3.10
2022-10-15T09:35:06.116Z,2.10
2022-10-15T09:36:17.797Z,2.00
2022-10-15T09:37:35.575Z,0.20
2022-10-15T09:39:07.351Z,2.60
2022-10-15T09:40:28.448Z,2.30
2022-10-15T09:41:52.623Z,1.90
2022-10-15T09:42:57.893Z,3.30
2022-10-15T09:44:02.916Z,2.00
2022-10-15T09:45:13.959Z,2.40
2022-10-15T09:46:17.459Z,2.90
2022-10-15T09:47:25.986Z,2.30
2022-10-15T09:48:36.214Z,2.70
2022-10-15T09:49:38.069Z,3.00
2022-10-15T09:50:58.774Z,2.00
2022-10-15T09:52:05.022Z,2.80
2022-10-15T09:53:28.851Z,3.00
2022-10-15T09:54:47.591Z,1.10
2022-10-15T09:55:54.225Z,2.00
2022-10-15T09:56:58.720Z,3.00
2022-10-15T09:58:08.079Z,3.10
2022-10-15T09:59:17.433Z,2.30
2022-10-15T10:00:20.011Z,2.80
2022-10-15T10:01:26.977Z,2.20
2022-10-15T10:02:29.990Z,2.70
2022-10-15T10:03:34.714Z,3.20
2022-10-15T10:04:36.503Z,2.60
2022-10-15T10:05:38.550Z,3.33
2022-10-15T10:06:52.853Z,2.20
2022-10-15T10:08:13.589Z,2.70
2022-10-15T10:09:22.744Z,2.50
2022-10-15T10:10:30.971Z,2.60
2022-10-15T10:11:36.558Z,3.00
2022-10-15T10:12:38.738Z,2.50
2022-10-15T10:14:00.692Z,3.10
2022-10-15T10:15:06.202Z,2.00
2022-10-15T10:16:10.646Z,2.80
2022-10-15T10:17:24.687Z,3.00
2022-10-15T10:18:26.798Z,3.30
2022-10-15T10:19:28.601Z,2.80
2022-10-15T10:20:34.016Z,0.70
2022-10-15T10:21:38.199Z,1.00
2022-10-15T10:22:51.589Z,3.50
2022-10-15T10:23:55.926Z,2.30
2022-10-15T10:24:59.024Z,3.20
2022-10-15T10:26:04.517Z,3.55
2022-10-15T10:27:19.061Z,2.00
2022-10-15T10:28:45.833Z,2.50
2022-10-15T10:29:59.991Z,2.30
2022-10-15T10:31:08.997Z,3.00
2022-10-15T10:32:14.593Z,1.40
2022-10-15T10:33:20.060Z,2.50
2022-10-15T10:34:28.284Z,3.00
2022-10-15T10:35:45.155Z,2.80
2022-10-15T10:36:52.956Z,2.20
2022-10-15T10:37:55.090Z,2.90
2022-10-15T10:39:15.643Z,3.20
2022-10-15T10:40:34.908Z,3.50
2022-10-15T10:41:54.352Z,3.00
2022-10-15T10:43:18.393Z,3.20
2022-10-15T10:44:25.172Z,2.60
2022-10-15T10:45:27.240Z,3.30
2022-10-15T10:46:29.237Z,2.30
2022-10-15T10:47:34.728Z,3.78
2022-10-15T10:48:46.365Z,2.20
2022-10-15T10:49:55.316Z,2.80
2022-10-15T10:51:09.249Z,2.50
2022-10-15T10:52:33.513Z,1.90
2022-10-15T10:53:40.164Z,4.10
2022-10-15T10:55:45.918Z,4.30
2022-10-15T10:56:49.476Z,2.50
2022-10-15T10:57:56.871Z,3.20
2022-10-15T10:59:05.067Z,3.50
2022-10-15T11:00:10.752Z,3.60
2022-10-15T11:01:16.680Z,2.70
2022-10-15T11:02:19.504Z,2.80
2022-10-15T11:03:37.649Z,3.00
2022-10-15T11:04:40.492Z,2.00
2022-10-15T11:05:43.722Z,3.50
2022-10-15T11:07:05.265Z,3.30
2022-10-15T11:08:19.911Z,2.90
2022-10-15T11:09:37.558Z,2.30
2022-10-15T11:12:31.506Z,3.20
2022-10-15T11:13:40.652Z,2.20
2022-10-15T11:14:51.363Z,2.70
2022-10-15T11:16:01.739Z,2.00
2022-10-15T11:17:10.264Z,2.80
2022-10-15T11:18:31.351Z,2.50
2022-10-15T11:20:05.962Z,2.80
2022-10-15T11:21:21.142Z,2.80
2022-10-15T11:24:42.649Z,2.50
2022-10-15T11:25:49.478Z,2.10
2022-10-15T11:27:10.966Z,2.80
2022-10-15T11:28:47.931Z,1.70
2022-10-15T11:30:11.713Z,2.00
2022-10-15T11:31:19.658Z,1.60
2022-10-15T11:34:04.075Z,2.50
2022-10-15T11:35:34.468Z,2.80
2022-10-15T11:36:37.932Z,2.60
2022-10-15T11:38:03.248Z,1.60
2022-10-15T11:39:35.930Z,2.00
2022-10-15T11:40:57.074Z,0.20
2022-10-15T11:42:08.625Z,2.00
2022-10-15T11:43:25.988Z,2.00
2022-10-15T11:44:48.483Z,2.10
2022-10-15T11:46:12.571Z,2.70
2022-10-15T11:47:39.006Z,2.80
2022-10-15T11:48:50.743Z,2.20
2022-10-15T11:50:02.790Z,2.00
2022-10-15T11:51:17.563Z,2.80
2022-10-15T11:52:32.034Z,3.90
2022-10-15T11:54:03.625Z,3.20
2022-10-15T11:55:15.708Z,3.10
2022-10-15T11:56:22.399Z,3.20
2022-10-15T11:57:27.625Z,2.30
2022-10-15T11:58:42.060Z,2.40
2022-10-15T12:00:00.249Z,2.70
2022-10-15T12:01:09.517Z,2.60
2022-10-15T12:02:15.085Z,3.00
2022-10-15T12:03:20.817Z,3.00
2022-10-15T12:04:42.446Z,3.40
2022-10-15T12:05:49.085Z,3.50
2022-10-15T12:06:54.572Z,2.60
2022-10-15T12:07:57.086Z,3.90
2022-10-15T12:09:04.883Z,3.30
2022-10-15T12:10:27.778Z,3.60
2022-10-15T12:13:16.309Z,4.70
2022-10-15T12:14:25.850Z,4.20
2022-10-15T12:15:48.464Z,3.50
2022-10-15T12:17:00.283Z,8.40
2022-10-15T12:18:24.639Z,12.20
2022-10-15T12:19:30.791Z,31.10
2022-10-15T12:20:33.591Z,34.60
2022-10-15T12:21:43.602Z,37.60
2022-10-15T12:22:50.046Z,45.70
2022-10-15T12:23:51.910Z,42.80
2022-10-15T12:24:54.943Z,68.22
2022-10-15T12:25:57.033Z,52.09
2022-10-15T12:27:20.939Z,38.00
2022-10-15T12:28:26.977Z,10.70
2022-10-15T12:29:30.040Z,67.20
2022-10-15T12:30:34.988Z,34.50
2022-10-15T12:31:52.923Z,34.30
2022-10-15T12:32:55.552Z,36.80
2022-10-15T12:33:57.822Z,4.30
2022-10-15T12:35:02.848Z,6.30
2022-10-15T12:36:08.786Z,6.80
2022-10-15T12:37:19.284Z,10.60
2022-10-15T12:38:31.063Z,11.00
2022-10-15T12:40:40.987Z,2.60
2022-10-15T12:41:47.806Z,2.40
2022-10-15T12:42:53.680Z,3.00
2022-10-15T12:44:22.295Z,3.40
2022-10-15T12:45:40.001Z,3.00
2022-10-15T12:46:41.606Z,5.10
2022-10-15T12:47:55.470Z,6.70
2022-10-15T12:48:57.926Z,5.30
2022-10-15T12:50:05.702Z,4.10
2022-10-15T12:51:24.397Z,3.50
2022-10-15T12:52:52.905Z,4.60
2022-10-15T12:53:55.460Z,3.30
2022-10-15T12:55:18.343Z,2.20
2022-10-15T12:56:23.864Z,3.80
2022-10-15T12:57:35.481Z,2.10
2022-10-15T12:58:52.557Z,3.30
2022-10-15T12:59:56.381Z,2.50
2022-10-15T13:01:04.873Z,2.20
2022-10-15T13:02:11.107Z,3.10
2022-10-15T13:03:21.776Z,2.60
2022-10-15T13:04:27.364Z,3.30
2022-10-15T13:05:33.517Z,2.90
2022-10-15T13:06:38.298Z,4.60
2022-10-15T13:07:45.013Z,3.30
2022-10-15T13:09:13.950Z,4.20
2022-10-15T13:10:20.966Z,3.40
2022-10-15T13:11:32.913Z,5.60
2022-10-15T13:12:37.329Z,13.10
2022-10-15T13:13:43.226Z,71.00
2022-10-15T13:14:48.903Z,69.80
2022-10-15T13:16:08.964Z,82.10
2022-10-15T13:17:17.240Z,13.20
2022-10-15T13:18:21.877Z,42.80
2022-10-15T13:19:30.479Z,71.20
2022-10-15T13:20:36.753Z,71.30
2022-10-15T13:21:53.176Z,78.60
2022-10-15T13:23:25.743Z,28.40
2022-10-15T13:24:21.008Z,33.70
2022-10-15T13:25:22.943Z,28.20
2022-10-15T13:26:26.097Z,24.78
2022-10-15T13:27:33.635Z,34.20
2022-10-15T13:28:38.569Z,31.20
2022-10-15T13:29:44.264Z,33.40
2022-10-15T13:30:50.121Z,24.10
2022-10-15T13:31:56.279Z,30.20
2022-10-15T13:32:59.849Z,30.90
2022-10-15T13:34:17.730Z,25.10
2022-10-15T13:35:25.072Z,25.40
2022-10-15T13:36:32.811Z,25.90
2022-10-15T13:37:36.813Z,25.90
2022-10-15T13:38:41.909Z,23.70
2022-10-15T13:39:44.932Z,29.70
2022-10-15T13:40:50.019Z,18.00
2022-10-15T13:41:54.957Z,32.50
2022-10-15T13:43:03.505Z,25.00
2022-10-15T13:44:05.670Z,24.30
2022-10-15T13:45:17.548Z,17.20
2022-10-15T13:46:22.255Z,34.10
2022-10-15T13:47:33.716Z,12.60
2022-10-15T13:48:41.573Z,32.60
2022-10-15T13:49:43.734Z,17.60
2022-10-15T13:50:55.603Z,22.30
2022-10-15T13:51:58.214Z,24.40
2022-10-15T13:53:20.822Z,14.20
2022-10-15T13:54:29.567Z,23.30
2022-10-15T13:55:35.023Z,17.00
2022-10-15T13:56:41.216Z,21.50
2022-10-15T13:57:48.161Z,17.90
2022-10-15T13:58:52.286Z,16.30
2022-10-15T13:59:54.840Z,24.00
2022-10-15T14:01:05.793Z,15.10
2022-10-15T14:02:11.870Z,9.70
2022-10-15T14:03:17.379Z,17.80
2022-10-15T14:04:23.124Z,19.00
2022-10-15T14:05:26.498Z,11.20
2022-10-15T14:06:31.826Z,12.90
2022-10-15T14:07:35.938Z,17.00
2022-10-15T14:08:37.692Z,9.50
2022-10-15T14:09:40.356Z,9.00
2022-10-15T14:10:42.629Z,15.18
2022-10-15T14:11:44.811Z,5.60
2022-10-15T14:12:46.814Z,7.70
2022-10-15T14:15:24.877Z,6.50
2022-10-15T14:16:42.285Z,8.30
2022-10-15T14:17:48.940Z,5.70
2022-10-15T14:18:54.041Z,4.50
2022-10-15T14:20:25.317Z,5.90
2022-10-15T14:21:14.537Z,6.90
2022-10-15T14:22:19.903Z,10.20
2022-10-15T14:23:24.875Z,9.30
2022-10-15T14:24:39.140Z,5.60
2022-10-15T14:25:41.762Z,6.70
2022-10-15T14:26:45.373Z,11.00
2022-10-15T14:27:47.991Z,5.70
2022-10-15T14:28:52.216Z,10.20
2022-10-15T14:30:00.487Z,7.50
2022-10-15T14:31:03.027Z,5.50
2022-10-15T14:32:20.082Z,6.00
2022-10-15T14:33:41.208Z,5.70
2022-10-15T14:34:43.638Z,7.40
2022-10-15T14:35:45.758Z,4.80
2022-10-15T14:36:49.210Z,4.60
2022-10-15T14:38:11.988Z,6.40
2022-10-15T14:39:32.196Z,5.90
2022-10-15T14:40:35.248Z,5.70
2022-10-15T14:41:37.258Z,6.30
2022-10-15T14:42:45.152Z,5.89
2022-10-15T14:44:05.886Z,6.30
2022-10-15T14:45:26.355Z,5.20
2022-10-15T14:46:45.260Z,5.90
2022-10-15T14:47:51.477Z,5.10
2022-10-15T14:48:54.107Z,5.00
2022-10-15T14:49:58.757Z,5.00
2022-10-15T14:51:05.295Z,5.70
2022-10-15T14:52:13.629Z,4.80
2022-10-15T14:53:22.730Z,4.60
2022-10-15T14:54:28.205Z,5.30
2022-10-15T14:55:33.280Z,6.00